sensor_id;sensor_type;location;lat;lon;timestamp;P1;durP1;ratioP1;P2;durP2;ratioP2
62798;SDS011;48842;51.046;13.796;2023-08-20T00:01:21;17.60;;;13.93;;
62798;SDS011;48842;51.046;13.796;2023-08-20T00:03:49;16.47;;;13.70;;
62798;SDS011;48842;51.046;13.796;2023-08-20T00:06:15;14.33;;;12.93;;
62798;SDS011;48842;51.046;13.796;2023-08-20T00:08:41;19.33;;;13.43;;
62798;SDS011;48842;51.046;13.796;2023-08-20T00:11:06;15.07;;;12.30;;
62798;SDS011;48842;51.046;13.796;2023-08-20T00:13:31;13.83;;;12.53;;
62798;SDS011;48842;51.046;13.796;2023-08-20T00:15:58;14.23;;;12.50;;
62798;SDS011;48842;51.046;13.796;2023-08-20T00:18:23;12.37;;;11.27;;
62798;SDS011;48842;51.046;13.796;2023-08-20T00:20:49;13.80;;;12.50;;
62798;SDS011;48842;51.046;13.796;2023-08-20T00:23:14;13.70;;;12.30;;
62798;SDS011;48842;51.046;13.796;2023-08-20T00:25:40;15.43;;;12.60;;
62798;SDS011;48842;51.046;13.796;2023-08-20T00:28:05;13.83;;;12.50;;
62798;SDS011;48842;51.046;13.796;2023-08-20T00:30:30;12.80;;;11.50;;
62798;SDS011;48842;51.046;13.796;2023-08-20T00:32:56;12.83;;;11.33;;
62798;SDS011;48842;51.046;13.796;2023-08-20T00:35:21;13.33;;;12.00;;
62798;SDS011;48842;51.046;13.796;2023-08-20T00:37:47;12.87;;;11.73;;
62798;SDS011;48842;51.046;13.796;2023-08-20T00:40:12;15.13;;;11.70;;
62798;SDS011;48842;51.046;13.796;2023-08-20T00:42:37;12.90;;;11.60;;
62798;SDS011;48842;51.046;13.796;2023-08-20T00:45:04;16.20;;;11.83;;
62798;SDS011;48842;51.046;13.796;2023-08-20T00:47:30;15.07;;;12.43;;
62798;SDS011;48842;51.046;13.796;2023-08-20T00:49:56;19.13;;;11.73;;
62798;SDS011;48842;51.046;13.796;2023-08-20T00:52:21;13.43;;;12.00;;
62798;SDS011;48842;51.046;13.796;2023-08-20T00:54:47;12.80;;;11.30;;
62798;SDS011;48842;51.046;13.796;2023-08-20T00:57:13;16.80;;;12.10;;
62798;SDS011;48842;51.046;13.796;2023-08-20T00:59:40;11.67;;;10.50;;
62798;SDS011;48842;51.046;13.796;2023-08-20T01:02:06;19.53;;;12.03;;
62798;SDS011;48842;51.046;13.796;2023-08-20T01:04:32;12.53;;;11.27;;
62798;SDS011;48842;51.046;13.796;2023-08-20T01:12:22;12.13;;;11.03;;
62798;SDS011;48842;51.046;13.796;2023-08-20T01:14:47;12.80;;;11.70;;
62798;SDS011;48842;51.046;13.796;2023-08-20T01:17:13;16.13;;;11.60;;
62798;SDS011;48842;51.046;13.796;2023-08-20T01:19:38;13.53;;;12.33;;
62798;SDS011;48842;51.046;13.796;2023-08-20T01:22:14;17.17;;;11.73;;
62798;SDS011;48842;51.046;13.796;2023-08-20T01:30:50;12.70;;;11.43;;
62798;SDS011;48842;51.046;13.796;2023-08-20T01:33:16;13.07;;;11.90;;
62798;SDS011;48842;51.046;13.796;2023-08-20T01:35:42;12.77;;;11.50;;
62798;SDS011;48842;51.046;13.796;2023-08-20T01:38:07;16.00;;;11.40;;
62798;SDS011;48842;51.046;13.796;2023-08-20T01:40:33;12.83;;;11.60;;
62798;SDS011;48842;51.046;13.796;2023-08-20T01:42:58;12.20;;;11.20;;
62798;SDS011;48842;51.046;13.796;2023-08-20T01:45:24;13.10;;;11.70;;
62798;SDS011;48842;51.046;13.796;2023-08-20T01:47:49;12.57;;;11.37;;
62798;SDS011;48842;51.046;13.796;2023-08-20T01:50:14;12.37;;;11.13;;
62798;SDS011;48842;51.046;13.796;2023-08-20T01:52:40;12.13;;;10.43;;
62798;SDS011;48842;51.046;13.796;2023-08-20T01:55:05;12.33;;;11.03;;
62798;SDS011;48842;51.046;13.796;2023-08-20T01:57:31;12.80;;;11.60;;
62798;SDS011;48842;51.046;13.796;2023-08-20T01:59:57;12.07;;;10.50;;
62798;SDS011;48842;51.046;13.796;2023-08-20T02:02:22;13.10;;;10.90;;
62798;SDS011;48842;51.046;13.796;2023-08-20T02:04:48;12.50;;;11.37;;
62798;SDS011;48842;51.046;13.796;2023-08-20T02:07:13;12.53;;;11.37;;
62798;SDS011;48842;51.046;13.796;2023-08-20T02:09:38;13.80;;;11.70;;
62798;SDS011;48842;51.046;13.796;2023-08-20T02:12:04;13.00;;;11.07;;
62798;SDS011;48842;51.046;13.796;2023-08-20T02:14:29;12.73;;;11.43;;
62798;SDS011;48842;51.046;13.796;2023-08-20T02:16:58;12.70;;;10.90;;
62798;SDS011;48842;51.046;13.796;2023-08-20T02:19:23;11.40;;;10.33;;
62798;SDS011;48842;51.046;13.796;2023-08-20T02:21:49;22.20;;;11.87;;
62798;SDS011;48842;51.046;13.796;2023-08-20T02:24:14;14.00;;;12.20;;
62798;SDS011;48842;51.046;13.796;2023-08-20T02:26:39;13.43;;;12.03;;
62798;SDS011;48842;51.046;13.796;2023-08-20T02:29:05;16.30;;;11.80;;
62798;SDS011;48842;51.046;13.796;2023-08-20T02:31:30;12.83;;;11.43;;
62798;SDS011;48842;51.046;13.796;2023-08-20T02:33:55;12.63;;;11.33;;
62798;SDS011;48842;51.046;13.796;2023-08-20T02:36:21;19.10;;;11.97;;
62798;SDS011;48842;51.046;13.796;2023-08-20T02:38:46;12.73;;;11.53;;
62798;SDS011;48842;51.046;13.796;2023-08-20T02:41:11;14.00;;;12.53;;
62798;SDS011;48842;51.046;13.796;2023-08-20T02:43:37;13.43;;;12.03;;
62798;SDS011;48842;51.046;13.796;2023-08-20T02:46:03;12.90;;;11.70;;
62798;SDS011;48842;51.046;13.796;2023-08-20T02:48:29;14.27;;;11.47;;
62798;SDS011;48842;51.046;13.796;2023-08-20T02:50:55;14.03;;;12.53;;
62798;SDS011;48842;51.046;13.796;2023-08-20T02:53:21;13.40;;;11.93;;
62798;SDS011;48842;51.046;13.796;2023-08-20T02:55:47;16.80;;;12.40;;
62798;SDS011;48842;51.046;13.796;2023-08-20T02:58:12;14.50;;;12.30;;
62798;SDS011;48842;51.046;13.796;2023-08-20T03:00:39;14.33;;;12.33;;
62798;SDS011;48842;51.046;13.796;2023-08-20T03:03:04;14.00;;;12.57;;
62798;SDS011;48842;51.046;13.796;2023-08-20T03:05:32;18.53;;;13.60;;
62798;SDS011;48842;51.046;13.796;2023-08-20T03:07:58;13.13;;;11.93;;
62798;SDS011;48842;51.046;13.796;2023-08-20T03:10:23;13.90;;;12.50;;
62798;SDS011;48842;51.046;13.796;2023-08-20T03:12:49;14.60;;;12.73;;
62798;SDS011;48842;51.046;13.796;2023-08-20T03:15:14;14.43;;;12.93;;
62798;SDS011;48842;51.046;13.796;2023-08-20T03:17:39;20.83;;;12.00;;
62798;SDS011;48842;51.046;13.796;2023-08-20T03:20:05;14.03;;;12.70;;
62798;SDS011;48842;51.046;13.796;2023-08-20T03:22:31;13.50;;;12.20;;
62798;SDS011;48842;51.046;13.796;2023-08-20T03:24:57;12.93;;;11.60;;
62798;SDS011;48842;51.046;13.796;2023-08-20T03:27:22;12.83;;;11.60;;
62798;SDS011;48842;51.046;13.796;2023-08-20T03:29:47;17.37;;;12.30;;
62798;SDS011;48842;51.046;13.796;2023-08-20T03:32:13;16.70;;;12.37;;
62798;SDS011;48842;51.046;13.796;2023-08-20T03:34:39;17.53;;;12.33;;
62798;SDS011;48842;51.046;13.796;2023-08-20T03:37:04;15.30;;;12.00;;
62798;SDS011;48842;51.046;13.796;2023-08-20T03:39:30;17.07;;;13.03;;
62798;SDS011;48842;51.046;13.796;2023-08-20T03:41:56;13.80;;;12.47;;
62798;SDS011;48842;51.046;13.796;2023-08-20T03:44:22;14.37;;;12.97;;
62798;SDS011;48842;51.046;13.796;2023-08-20T03:46:48;14.60;;;12.63;;
62798;SDS011;48842;51.046;13.796;2023-08-20T03:49:13;13.80;;;12.60;;
62798;SDS011;48842;51.046;13.796;2023-08-20T03:51:38;20.00;;;13.03;;
62798;SDS011;48842;51.046;13.796;2023-08-20T03:54:03;13.10;;;12.00;;
62798;SDS011;48842;51.046;13.796;2023-08-20T03:56:29;13.73;;;12.40;;
62798;SDS011;48842;51.046;13.796;2023-08-20T03:58:54;14.53;;;13.03;;
62798;SDS011;48842;51.046;13.796;2023-08-20T04:01:20;13.83;;;12.43;;
62798;SDS011;48842;51.046;13.796;2023-08-20T04:03:46;23.93;;;13.13;;
62798;SDS011;48842;51.046;13.796;2023-08-20T04:06:11;13.03;;;11.83;;
62798;SDS011;48842;51.046;13.796;2023-08-20T04:08:37;14.13;;;12.50;;
62798;SDS011;48842;51.046;13.796;2023-08-20T04:11:02;15.77;;;12.13;;
62798;SDS011;48842;51.046;13.796;2023-08-20T04:13:28;14.83;;;12.63;;
62798;SDS011;48842;51.046;13.796;2023-08-20T04:15:54;14.03;;;12.63;;
62798;SDS011;48842;51.046;13.796;2023-08-20T04:18:19;13.00;;;11.70;;
62798;SDS011;48842;51.046;13.796;2023-08-20T04:20:44;14.07;;;12.33;;
62798;SDS011;48842;51.046;13.796;2023-08-20T04:23:11;16.07;;;12.30;;
62798;SDS011;48842;51.046;13.796;2023-08-20T04:25:36;12.43;;;11.33;;
62798;SDS011;48842;51.046;13.796;2023-08-20T04:28:02;13.40;;;12.10;;
62798;SDS011;48842;51.046;13.796;2023-08-20T04:30:27;14.63;;;13.20;;
62798;SDS011;48842;51.046;13.796;2023-08-20T04:32:52;17.23;;;12.37;;
62798;SDS011;48842;51.046;13.796;2023-08-20T04:35:18;13.30;;;11.90;;
62798;SDS011;48842;51.046;13.796;2023-08-20T04:37:44;13.60;;;12.00;;
62798;SDS011;48842;51.046;13.796;2023-08-20T04:40:09;16.17;;;11.93;;
62798;SDS011;48842;51.046;13.796;2023-08-20T04:42:35;14.03;;;11.83;;
62798;SDS011;48842;51.046;13.796;2023-08-20T04:45:00;16.80;;;13.00;;
62798;SDS011;48842;51.046;13.796;2023-08-20T04:47:25;14.97;;;12.20;;
62798;SDS011;48842;51.046;13.796;2023-08-20T04:49:51;13.27;;;11.97;;
62798;SDS011;48842;51.046;13.796;2023-08-20T04:52:16;13.70;;;12.40;;
62798;SDS011;48842;51.046;13.796;2023-08-20T04:54:41;14.50;;;11.97;;
62798;SDS011;48842;51.046;13.796;2023-08-20T04:57:07;13.80;;;12.50;;
62798;SDS011;48842;51.046;13.796;2023-08-20T04:59:32;13.83;;;12.43;;
62798;SDS011;48842;51.046;13.796;2023-08-20T05:01:57;16.93;;;13.00;;
62798;SDS011;48842;51.046;13.796;2023-08-20T05:04:22;14.37;;;13.00;;
62798;SDS011;48842;51.046;13.796;2023-08-20T05:06:48;14.63;;;13.33;;
62798;SDS011;48842;51.046;13.796;2023-08-20T05:09:14;14.50;;;12.40;;
62798;SDS011;48842;51.046;13.796;2023-08-20T05:11:41;13.67;;;12.40;;
62798;SDS011;48842;51.046;13.796;2023-08-20T05:14:06;13.63;;;12.23;;
62798;SDS011;48842;51.046;13.796;2023-08-20T05:16:32;14.90;;;13.40;;
62798;SDS011;48842;51.046;13.796;2023-08-20T05:18:57;14.37;;;13.10;;
62798;SDS011;48842;51.046;13.796;2023-08-20T05:21:22;13.87;;;12.00;;
62798;SDS011;48842;51.046;13.796;2023-08-20T05:23:48;14.43;;;13.03;;
62798;SDS011;48842;51.046;13.796;2023-08-20T05:26:13;14.87;;;13.23;;
62798;SDS011;48842;51.046;13.796;2023-08-20T05:28:39;24.30;;;13.33;;
62798;SDS011;48842;51.046;13.796;2023-08-20T05:31:04;13.03;;;11.83;;
62798;SDS011;48842;51.046;13.796;2023-08-20T05:33:30;13.23;;;11.87;;
62798;SDS011;48842;51.046;13.796;2023-08-20T05:35:55;14.13;;;11.50;;
62798;SDS011;48842;51.046;13.796;2023-08-20T05:38:20;13.67;;;11.80;;
62798;SDS011;48842;51.046;13.796;2023-08-20T05:40:45;15.43;;;11.30;;
62798;SDS011;48842;51.046;13.796;2023-08-20T05:43:11;40.57;;;10.70;;
62798;SDS011;48842;51.046;13.796;2023-08-20T05:45:36;13.80;;;9.20;;
62798;SDS011;48842;51.046;13.796;2023-08-20T05:48:01;12.80;;;9.47;;
62798;SDS011;48842;51.046;13.796;2023-08-20T05:50:27;23.70;;;9.50;;
62798;SDS011;48842;51.046;13.796;2023-08-20T05:52:52;11.93;;;9.60;;
62798;SDS011;48842;51.046;13.796;2023-08-20T05:55:18;10.37;;;9.20;;
62798;SDS011;48842;51.046;13.796;2023-08-20T05:57:43;9.60;;;8.60;;
62798;SDS011;48842;51.046;13.796;2023-08-20T06:00:09;13.47;;;8.90;;
62798;SDS011;48842;51.046;13.796;2023-08-20T06:02:35;10.17;;;8.43;;
62798;SDS011;48842;51.046;13.796;2023-08-20T06:05:02;17.73;;;9.30;;
62798;SDS011;48842;51.046;13.796;2023-08-20T06:07:30;10.77;;;9.13;;
62798;SDS011;48842;51.046;13.796;2023-08-20T06:09:56;9.20;;;8.40;;
62798;SDS011;48842;51.046;13.796;2023-08-20T06:12:21;9.03;;;8.13;;
62798;SDS011;48842;51.046;13.796;2023-08-20T06:14:47;11.17;;;8.77;;
62798;SDS011;48842;51.046;13.796;2023-08-20T06:17:12;12.87;;;9.10;;
62798;SDS011;48842;51.046;13.796;2023-08-20T06:19:37;15.63;;;8.47;;
62798;SDS011;48842;51.046;13.796;2023-08-20T06:22:04;11.47;;;8.53;;
62798;SDS011;48842;51.046;13.796;2023-08-20T06:24:29;10.23;;;9.10;;
62798;SDS011;48842;51.046;13.796;2023-08-20T06:26:54;12.10;;;9.03;;
62798;SDS011;48842;51.046;13.796;2023-08-20T06:29:20;13.40;;;8.50;;
62798;SDS011;48842;51.046;13.796;2023-08-20T06:31:48;9.40;;;8.20;;
62798;SDS011;48842;51.046;13.796;2023-08-20T06:34:14;10.13;;;8.57;;
62798;SDS011;48842;51.046;13.796;2023-08-20T06:36:39;9.13;;;8.13;;
62798;SDS011;48842;51.046;13.796;2023-08-20T06:39:05;9.87;;;8.90;;
62798;SDS011;48842;51.046;13.796;2023-08-20T06:41:30;12.23;;;8.80;;
62798;SDS011;48842;51.046;13.796;2023-08-20T06:43:56;12.93;;;9.37;;
62798;SDS011;48842;51.046;13.796;2023-08-20T06:46:22;11.60;;;8.30;;
62798;SDS011;48842;51.046;13.796;2023-08-20T06:48:47;15.90;;;8.57;;
62798;SDS011;48842;51.046;13.796;2023-08-20T06:51:18;11.60;;;9.57;;
62798;SDS011;48842;51.046;13.796;2023-08-20T06:53:44;10.90;;;9.30;;
62798;SDS011;48842;51.046;13.796;2023-08-20T06:56:10;9.93;;;8.17;;
62798;SDS011;48842;51.046;13.796;2023-08-20T06:58:39;12.60;;;8.97;;
62798;SDS011;48842;51.046;13.796;2023-08-20T07:01:05;10.70;;;8.93;;
62798;SDS011;48842;51.046;13.796;2023-08-20T07:03:37;10.37;;;9.30;;
62798;SDS011;48842;51.046;13.796;2023-08-20T07:06:05;13.83;;;8.13;;
62798;SDS011;48842;51.046;13.796;2023-08-20T07:08:31;10.50;;;9.03;;
62798;SDS011;48842;51.046;13.796;2023-08-20T07:10:56;9.60;;;8.80;;
62798;SDS011;48842;51.046;13.796;2023-08-20T07:13:22;9.50;;;8.70;;
62798;SDS011;48842;51.046;13.796;2023-08-20T07:15:48;10.23;;;9.23;;
62798;SDS011;48842;51.046;13.796;2023-08-20T07:18:13;14.07;;;8.90;;
62798;SDS011;48842;51.046;13.796;2023-08-20T07:20:43;10.70;;;9.07;;
62798;SDS011;48842;51.046;13.796;2023-08-20T07:23:09;10.83;;;9.67;;
62798;SDS011;48842;51.046;13.796;2023-08-20T07:25:36;14.20;;;9.83;;
62798;SDS011;48842;51.046;13.796;2023-08-20T07:28:05;9.97;;;8.97;;
62798;SDS011;48842;51.046;13.796;2023-08-20T07:30:31;10.70;;;9.40;;
62798;SDS011;48842;51.046;13.796;2023-08-20T07:32:57;12.80;;;8.57;;
62798;SDS011;48842;51.046;13.796;2023-08-20T07:35:23;14.13;;;10.07;;
62798;SDS011;48842;51.046;13.796;2023-08-20T07:37:56;10.37;;;9.30;;
62798;SDS011;48842;51.046;13.796;2023-08-20T07:40:21;16.17;;;9.50;;
62798;SDS011;48842;51.046;13.796;2023-08-20T07:42:47;9.83;;;8.83;;
62798;SDS011;48842;51.046;13.796;2023-08-20T07:45:12;13.40;;;9.57;;
62798;SDS011;48842;51.046;13.796;2023-08-20T07:47:38;12.50;;;9.30;;
62798;SDS011;48842;51.046;13.796;2023-08-20T07:50:04;9.40;;;8.50;;
62798;SDS011;48842;51.046;13.796;2023-08-20T07:52:30;9.70;;;8.67;;
62798;SDS011;48842;51.046;13.796;2023-08-20T07:54:56;9.40;;;8.50;;
62798;SDS011;48842;51.046;13.796;2023-08-20T07:57:21;10.67;;;9.50;;
62798;SDS011;48842;51.046;13.796;2023-08-20T07:59:48;9.17;;;8.07;;
62798;SDS011;48842;51.046;13.796;2023-08-20T08:02:13;16.00;;;9.67;;
62798;SDS011;48842;51.046;13.796;2023-08-20T08:04:38;15.13;;;9.80;;
62798;SDS011;48842;51.046;13.796;2023-08-20T08:07:04;12.80;;;9.50;;
62798;SDS011;48842;51.046;13.796;2023-08-20T08:09:30;18.80;;;9.00;;
62798;SDS011;48842;51.046;13.796;2023-08-20T08:11:57;11.60;;;8.90;;
62798;SDS011;48842;51.046;13.796;2023-08-20T08:14:23;10.83;;;9.73;;
62798;SDS011;48842;51.046;13.796;2023-08-20T08:16:49;10.53;;;9.50;;
62798;SDS011;48842;51.046;13.796;2023-08-20T08:19:15;11.83;;;9.37;;
62798;SDS011;48842;51.046;13.796;2023-08-20T08:21:41;11.57;;;9.10;;
62798;SDS011;48842;51.046;13.796;2023-08-20T08:24:07;13.43;;;9.20;;
62798;SDS011;48842;51.046;13.796;2023-08-20T08:26:33;10.87;;;9.23;;
62798;SDS011;48842;51.046;13.796;2023-08-20T08:29:00;16.90;;;9.10;;
62798;SDS011;48842;51.046;13.796;2023-08-20T08:31:26;13.63;;;9.77;;
62798;SDS011;48842;51.046;13.796;2023-08-20T08:33:51;13.23;;;10.40;;
62798;SDS011;48842;51.046;13.796;2023-08-20T08:36:16;16.97;;;10.10;;
62798;SDS011;48842;51.046;13.796;2023-08-20T08:38:42;11.30;;;9.63;;
62798;SDS011;48842;51.046;13.796;2023-08-20T08:41:11;12.47;;;9.50;;
62798;SDS011;48842;51.046;13.796;2023-08-20T08:43:38;13.93;;;9.67;;
62798;SDS011;48842;51.046;13.796;2023-08-20T08:46:05;11.90;;;9.57;;
62798;SDS011;48842;51.046;13.796;2023-08-20T08:48:44;18.07;;;9.53;;
62798;SDS011;48842;51.046;13.796;2023-08-20T08:51:13;11.67;;;9.47;;
62798;SDS011;48842;51.046;13.796;2023-08-20T08:53:39;12.03;;;8.70;;
62798;SDS011;48842;51.046;13.796;2023-08-20T08:56:06;12.57;;;9.03;;
62798;SDS011;48842;51.046;13.796;2023-08-20T08:58:32;10.13;;;9.13;;
62798;SDS011;48842;51.046;13.796;2023-08-20T09:00:58;9.07;;;7.80;;
62798;SDS011;48842;51.046;13.796;2023-08-20T09:03:23;10.30;;;9.20;;
62798;SDS011;48842;51.046;13.796;2023-08-20T09:05:50;12.80;;;9.03;;
62798;SDS011;48842;51.046;13.796;2023-08-20T09:08:20;9.70;;;7.77;;
62798;SDS011;48842;51.046;13.796;2023-08-20T09:10:45;10.37;;;8.20;;
62798;SDS011;48842;51.046;13.796;2023-08-20T09:13:11;11.50;;;8.57;;
62798;SDS011;48842;51.046;13.796;2023-08-20T09:15:36;9.27;;;8.33;;
62798;SDS011;48842;51.046;13.796;2023-08-20T09:18:02;9.80;;;8.80;;
62798;SDS011;48842;51.046;13.796;2023-08-20T09:20:37;17.73;;;10.90;;
62798;SDS011;48842;51.046;13.796;2023-08-20T09:23:03;15.33;;;10.80;;
62798;SDS011;48842;51.046;13.796;2023-08-20T09:25:29;12.90;;;10.83;;
62798;SDS011;48842;51.046;13.796;2023-08-20T09:27:55;17.60;;;11.77;;
62798;SDS011;48842;51.046;13.796;2023-08-20T09:30:20;13.80;;;12.00;;
62798;SDS011;48842;51.046;13.796;2023-08-20T09:32:46;14.10;;;11.97;;
62798;SDS011;48842;51.046;13.796;2023-08-20T09:35:28;13.63;;;11.87;;
62798;SDS011;48842;51.046;13.796;2023-08-20T09:37:58;22.00;;;12.43;;
62798;SDS011;48842;51.046;13.796;2023-08-20T09:40:28;16.77;;;12.43;;
62798;SDS011;48842;51.046;13.796;2023-08-20T09:42:54;13.33;;;11.90;;
62798;SDS011;48842;51.046;13.796;2023-08-20T09:45:20;13.60;;;12.30;;
62798;SDS011;48842;51.046;13.796;2023-08-20T09:47:48;16.47;;;13.30;;
62798;SDS011;48842;51.046;13.796;2023-08-20T09:50:14;17.13;;;12.80;;
62798;SDS011;48842;51.046;13.796;2023-08-20T09:52:47;21.63;;;12.70;;
62798;SDS011;48842;51.046;13.796;2023-08-20T09:55:19;21.27;;;13.03;;
62798;SDS011;48842;51.046;13.796;2023-08-20T09:57:47;13.97;;;12.57;;
62798;SDS011;48842;51.046;13.796;2023-08-20T10:00:13;23.73;;;13.20;;
62798;SDS011;48842;51.046;13.796;2023-08-20T10:02:39;15.73;;;11.97;;
62798;SDS011;48842;51.046;13.796;2023-08-20T10:05:08;18.13;;;11.60;;
62798;SDS011;48842;51.046;13.796;2023-08-20T10:07:35;14.63;;;13.10;;
62798;SDS011;48842;51.046;13.796;2023-08-20T10:10:02;16.43;;;13.43;;
62798;SDS011;48842;51.046;13.796;2023-08-20T10:12:30;16.33;;;11.77;;
62798;SDS011;48842;51.046;13.796;2023-08-20T10:14:56;14.23;;;11.70;;
62798;SDS011;48842;51.046;13.796;2023-08-20T10:17:25;14.07;;;12.40;;
62798;SDS011;48842;51.046;13.796;2023-08-20T10:19:53;21.17;;;11.87;;
62798;SDS011;48842;51.046;13.796;2023-08-20T10:22:20;14.13;;;12.40;;
62798;SDS011;48842;51.046;13.796;2023-08-20T10:24:49;17.23;;;12.67;;
62798;SDS011;48842;51.046;13.796;2023-08-20T10:27:24;14.20;;;12.70;;
62798;SDS011;48842;51.046;13.796;2023-08-20T10:29:52;15.90;;;11.60;;
62798;SDS011;48842;51.046;13.796;2023-08-20T10:32:18;15.40;;;11.20;;
62798;SDS011;48842;51.046;13.796;2023-08-20T10:34:49;13.67;;;12.17;;
62798;SDS011;48842;51.046;13.796;2023-08-20T10:37:21;12.70;;;10.97;;
62798;SDS011;48842;51.046;13.796;2023-08-20T10:39:54;13.10;;;11.73;;
62798;SDS011;48842;51.046;13.796;2023-08-20T10:42:27;12.57;;;11.20;;
62798;SDS011;48842;51.046;13.796;2023-08-20T10:47:22;14.97;;;10.67;;
62798;SDS011;48842;51.046;13.796;2023-08-20T10:49:50;11.13;;;9.30;;
62798;SDS011;48842;51.046;13.796;2023-08-20T10:52:17;8.87;;;7.97;;
62798;SDS011;48842;51.046;13.796;2023-08-20T10:54:43;11.40;;;9.80;;
62798;SDS011;48842;51.046;13.796;2023-08-20T10:57:09;10.87;;;9.77;;
62798;SDS011;48842;51.046;13.796;2023-08-20T10:59:34;11.37;;;10.27;;
62798;SDS011;48842;51.046;13.796;2023-08-20T11:02:05;11.10;;;10.00;;
62798;SDS011;48842;51.046;13.796;2023-08-20T11:04:37;14.00;;;9.23;;
62798;SDS011;48842;51.046;13.796;2023-08-20T11:07:04;13.20;;;9.93;;
62798;SDS011;48842;51.046;13.796;2023-08-20T11:09:30;13.20;;;9.83;;
62798;SDS011;48842;51.046;13.796;2023-08-20T11:11:58;9.50;;;8.57;;
62798;SDS011;48842;51.046;13.796;2023-08-20T11:14:27;9.63;;;8.83;;
62798;SDS011;48842;51.046;13.796;2023-08-20T11:17:08;8.97;;;8.13;;
62798;SDS011;48842;51.046;13.796;2023-08-20T11:19:40;10.73;;;8.83;;
62798;SDS011;48842;51.046;13.796;2023-08-20T11:22:13;9.43;;;8.13;;
62798;SDS011;48842;51.046;13.796;2023-08-20T11:24:48;12.23;;;8.17;;
62798;SDS011;48842;51.046;13.796;2023-08-20T11:27:26;8.90;;;8.10;;
62798;SDS011;48842;51.046;13.796;2023-08-20T11:29:52;10.10;;;7.50;;
62798;SDS011;48842;51.046;13.796;2023-08-20T11:32:36;8.90;;;8.10;;
62798;SDS011;48842;51.046;13.796;2023-08-20T11:35:05;8.60;;;7.70;;
62798;SDS011;48842;51.046;13.796;2023-08-20T11:37:42;8.63;;;7.80;;
62798;SDS011;48842;51.046;13.796;2023-08-20T11:40:08;9.33;;;8.33;;
62798;SDS011;48842;51.046;13.796;2023-08-20T11:42:35;13.67;;;7.67;;
62798;SDS011;48842;51.046;13.796;2023-08-20T11:45:00;8.83;;;8.00;;
62798;SDS011;48842;51.046;13.796;2023-08-20T11:47:25;8.60;;;7.77;;
62798;SDS011;48842;51.046;13.796;2023-08-20T11:50:03;7.50;;;6.80;;
62798;SDS011;48842;51.046;13.796;2023-08-20T11:52:30;9.27;;;7.80;;
62798;SDS011;48842;51.046;13.796;2023-08-20T11:54:57;32.63;;;7.87;;
62798;SDS011;48842;51.046;13.796;2023-08-20T11:57:22;11.10;;;6.63;;
62798;SDS011;48842;51.046;13.796;2023-08-20T11:59:48;7.63;;;7.03;;
62798;SDS011;48842;51.046;13.796;2023-08-20T12:02:13;9.30;;;7.13;;
62798;SDS011;48842;51.046;13.796;2023-08-20T12:04:38;8.73;;;7.83;;
62798;SDS011;48842;51.046;13.796;2023-08-20T12:07:13;14.97;;;7.37;;
62798;SDS011;48842;51.046;13.796;2023-08-20T12:09:39;13.00;;;7.20;;
62798;SDS011;48842;51.046;13.796;2023-08-20T12:12:05;8.50;;;7.50;;
62798;SDS011;48842;51.046;13.796;2023-08-20T12:14:32;9.07;;;8.17;;
62798;SDS011;48842;51.046;13.796;2023-08-20T12:16:57;9.27;;;7.67;;
62798;SDS011;48842;51.046;13.796;2023-08-20T12:19:23;8.50;;;7.00;;
62798;SDS011;48842;51.046;13.796;2023-08-20T12:21:49;7.50;;;6.80;;
62798;SDS011;48842;51.046;13.796;2023-08-20T12:24:14;10.57;;;8.40;;
62798;SDS011;48842;51.046;13.796;2023-08-20T12:26:40;8.27;;;7.23;;
62798;SDS011;48842;51.046;13.796;2023-08-20T12:29:06;8.60;;;7.73;;
62798;SDS011;48842;51.046;13.796;2023-08-20T12:31:32;7.70;;;6.90;;
62798;SDS011;48842;51.046;13.796;2023-08-20T12:33:58;9.03;;;7.13;;
62798;SDS011;48842;51.046;13.796;2023-08-20T12:36:24;13.00;;;7.17;;
62798;SDS011;48842;51.046;13.796;2023-08-20T12:38:50;9.87;;;7.10;;
62798;SDS011;48842;51.046;13.796;2023-08-20T12:41:18;12.43;;;7.90;;
62798;SDS011;48842;51.046;13.796;2023-08-20T12:43:45;8.13;;;6.93;;
62798;SDS011;48842;51.046;13.796;2023-08-20T12:46:17;10.07;;;7.67;;
62798;SDS011;48842;51.046;13.796;2023-08-20T12:49:04;7.77;;;6.83;;
62798;SDS011;48842;51.046;13.796;2023-08-20T12:51:41;10.00;;;6.00;;
62798;SDS011;48842;51.046;13.796;2023-08-20T12:54:13;7.60;;;6.83;;
62798;SDS011;48842;51.046;13.796;2023-08-20T12:56:39;7.53;;;6.83;;
62798;SDS011;48842;51.046;13.796;2023-08-20T12:59:04;10.37;;;7.27;;
62798;SDS011;48842;51.046;13.796;2023-08-20T13:01:33;9.00;;;7.17;;
62798;SDS011;48842;51.046;13.796;2023-08-20T13:03:59;8.40;;;6.27;;
62798;SDS011;48842;51.046;13.796;2023-08-20T13:06:29;7.50;;;6.70;;
62798;SDS011;48842;51.046;13.796;2023-08-20T13:08:57;8.80;;;6.60;;
62798;SDS011;48842;51.046;13.796;2023-08-20T13:11:24;8.10;;;6.43;;
62798;SDS011;48842;51.046;13.796;2023-08-20T13:13:50;8.93;;;7.00;;
62798;SDS011;48842;51.046;13.796;2023-08-20T13:16:18;15.43;;;6.67;;
62798;SDS011;48842;51.046;13.796;2023-08-20T13:18:44;7.90;;;6.73;;
62798;SDS011;48842;51.046;13.796;2023-08-20T13:21:10;8.17;;;7.03;;
62798;SDS011;48842;51.046;13.796;2023-08-20T13:23:38;7.00;;;6.10;;
62798;SDS011;48842;51.046;13.796;2023-08-20T13:26:09;12.00;;;6.97;;
62798;SDS011;48842;51.046;13.796;2023-08-20T13:28:34;7.30;;;6.53;;
62798;SDS011;48842;51.046;13.796;2023-08-20T13:31:00;6.37;;;5.87;;
62798;SDS011;48842;51.046;13.796;2023-08-20T13:33:25;6.90;;;6.30;;
62798;SDS011;48842;51.046;13.796;2023-08-20T13:35:52;8.20;;;6.00;;
62798;SDS011;48842;51.046;13.796;2023-08-20T13:38:22;8.83;;;6.00;;
62798;SDS011;48842;51.046;13.796;2023-08-20T13:40:47;6.90;;;6.20;;
62798;SDS011;48842;51.046;13.796;2023-08-20T13:43:13;7.83;;;6.07;;
62798;SDS011;48842;51.046;13.796;2023-08-20T13:45:42;7.10;;;6.37;;
62798;SDS011;48842;51.046;13.796;2023-08-20T13:48:10;6.30;;;5.70;;
62798;SDS011;48842;51.046;13.796;2023-08-20T13:50:38;6.90;;;6.27;;
62798;SDS011;48842;51.046;13.796;2023-08-20T13:53:03;7.23;;;5.77;;
62798;SDS011;48842;51.046;13.796;2023-08-20T13:55:29;7.60;;;6.53;;
62798;SDS011;48842;51.046;13.796;2023-08-20T13:57:56;8.63;;;6.70;;
62798;SDS011;48842;51.046;13.796;2023-08-20T14:00:21;6.17;;;5.77;;
62798;SDS011;48842;51.046;13.796;2023-08-20T14:02:46;8.27;;;6.30;;
62798;SDS011;48842;51.046;13.796;2023-08-20T14:05:12;12.80;;;6.20;;
62798;SDS011;48842;51.046;13.796;2023-08-20T14:07:37;7.43;;;6.73;;
62798;SDS011;48842;51.046;13.796;2023-08-20T14:10:03;7.47;;;6.70;;
62798;SDS011;48842;51.046;13.796;2023-08-20T14:12:29;7.17;;;6.47;;
62798;SDS011;48842;51.046;13.796;2023-08-20T14:14:55;7.67;;;6.87;;
62798;SDS011;48842;51.046;13.796;2023-08-20T14:17:20;7.60;;;6.17;;
62798;SDS011;48842;51.046;13.796;2023-08-20T14:19:46;6.67;;;6.07;;
62798;SDS011;48842;51.046;13.796;2023-08-20T14:22:11;11.97;;;6.90;;
62798;SDS011;48842;51.046;13.796;2023-08-20T14:24:36;7.93;;;6.83;;
62798;SDS011;48842;51.046;13.796;2023-08-20T14:27:02;7.93;;;7.13;;
62798;SDS011;48842;51.046;13.796;2023-08-20T14:29:27;10.97;;;6.57;;